Terminal Aerodrome Forecast
Issued by NWS

Home | Current Version | Previous Version | Graphics & Text | Print | Product List | Glossary On
Versions: 1 2 3 4 5 6 7 8 9 10 11 12 13 14 15
000
FTUS43 KBIS 151100
TAFJMS
TAF
KJMS 151123Z 1512/1612 16007KT P6SM FEW250
     FM151600 16016G22KT P6SM BKN100
     FM152000 15020G30KT P6SM BKN080
     FM160200 10020G30KT 4SM -SN SCT025 OVC035
     FM160900 05020G28KT 3SM -SN OVC012=

USA.gov is the U.S. government's official web portal to all federal, state and local government web resources and services.